createdAt,value
2018-04-14T00:01:03.503Z,15.50
2018-04-14T00:03:33.120Z,15.40
2018-04-14T00:06:02.760Z,15.40
2018-04-14T00:08:31.604Z,15.40
2018-04-14T00:11:01.207Z,15.30
2018-04-14T00:13:30.816Z,15.30
2018-04-14T00:16:00.446Z,15.30
2018-04-14T00:18:29.313Z,15.30
2018-04-14T00:20:58.920Z,15.30
2018-04-14T00:23:28.550Z,15.30
2018-04-14T00:25:57.400Z,15.30
2018-04-14T00:28:27.765Z,15.30
2018-04-14T00:30:56.620Z,15.30
2018-04-14T00:33:26.254Z,15.30
2018-04-14T00:35:55.101Z,15.30
2018-04-14T00:38:23.949Z,15.30
2018-04-14T00:40:52.789Z,15.30
2018-04-14T00:43:21.632Z,15.20
2018-04-14T00:45:50.797Z,15.20
2018-04-14T00:48:20.413Z,15.20
2018-04-14T00:50:49.252Z,15.10
2018-04-14T00:56:21.651Z,15.20
2018-04-14T00:58:51.296Z,15.00
2018-04-14T01:01:20.116Z,15.00
2018-04-14T01:03:48.969Z,15.00
2018-04-14T01:06:17.821Z,15.00
2018-04-14T01:08:46.657Z,15.00
2018-04-14T01:11:15.509Z,15.00
2018-04-14T01:13:45.148Z,15.00
2018-04-14T01:16:13.995Z,15.00
2018-04-14T01:18:42.832Z,15.00
2018-04-14T01:21:11.679Z,15.00
2018-04-14T01:23:41.281Z,14.80
2018-04-14T01:26:10.907Z,14.80
2018-04-14T01:28:39.754Z,14.70
2018-04-14T01:31:08.609Z,14.70
2018-04-14T01:33:37.447Z,14.80
2018-04-14T01:36:06.297Z,14.80
2018-04-14T01:38:35.141Z,14.90
2018-04-14T01:41:04.775Z,14.80
2018-04-14T01:43:33.668Z,14.70
2018-04-14T01:46:02.949Z,14.80
2018-04-14T01:48:32.569Z,14.80
2018-04-14T01:51:01.424Z,14.80
2018-04-14T01:53:31.030Z,14.80
2018-04-14T01:55:59.884Z,14.70
2018-04-14T01:58:28.727Z,14.80
2018-04-14T02:00:57.609Z,14.80
2018-04-14T02:03:27.214Z,14.90
2018-04-14T02:05:56.856Z,14.90
2018-04-14T02:08:25.693Z,14.80
2018-04-14T02:10:54.538Z,14.90
2018-04-14T02:13:23.375Z,14.90
2018-04-14T02:15:53.000Z,15.00
2018-04-14T02:18:22.608Z,15.00
2018-04-14T02:20:52.244Z,14.90
2018-04-14T02:23:21.081Z,14.90
2018-04-14T02:25:49.916Z,14.80
2018-04-14T02:28:18.763Z,14.90
2018-04-14T02:30:47.611Z,14.90
2018-04-14T02:33:16.465Z,14.80
2018-04-14T02:35:46.078Z,14.70
2018-04-14T02:38:14.949Z,14.70
2018-04-14T02:40:44.553Z,14.50
2018-04-14T02:43:14.179Z,14.50
2018-04-14T02:45:43.013Z,14.50
2018-04-14T02:48:11.859Z,14.60
2018-04-14T02:50:40.696Z,14.70
2018-04-14T02:53:09.552Z,14.80
2018-04-14T02:55:38.409Z,14.80
2018-04-14T02:58:08.114Z,14.70
2018-04-14T03:00:37.679Z,14.60
2018-04-14T03:03:07.305Z,14.70
2018-04-14T03:05:36.921Z,14.80
2018-04-14T03:08:06.533Z,14.70
2018-04-14T03:10:36.124Z,14.80
2018-04-14T03:13:05.760Z,14.90
2018-04-14T03:15:34.634Z,14.80
2018-04-14T03:18:03.494Z,14.90
2018-04-14T03:20:32.326Z,14.90
2018-04-14T03:23:01.792Z,14.80
2018-04-14T03:25:31.418Z,14.80
2018-04-14T03:28:00.282Z,14.80
2018-04-14T03:30:29.901Z,14.90
2018-04-14T03:32:59.513Z,14.90
2018-04-14T03:35:29.145Z,14.90
2018-04-14T03:37:58.013Z,14.80
2018-04-14T03:40:27.620Z,14.90
2018-04-14T03:42:57.230Z,14.80
2018-04-14T03:45:26.098Z,14.80
2018-04-14T03:47:54.933Z,14.70
2018-04-14T03:50:23.773Z,14.70
2018-04-14T03:52:52.613Z,14.80
2018-04-14T03:55:21.893Z,14.80
2018-04-14T03:57:50.727Z,14.80
2018-04-14T04:00:19.806Z,14.70
2018-04-14T04:02:48.645Z,14.60
2018-04-14T04:05:17.500Z,14.50
2018-04-14T04:07:47.101Z,14.50
2018-04-14T04:10:16.939Z,14.50
2018-04-14T04:12:45.986Z,14.50
2018-04-14T04:15:14.862Z,14.50
2018-04-14T04:17:43.701Z,14.50
2018-04-14T04:20:21.188Z,14.60
2018-04-14T04:23:02.669Z,14.60
2018-04-14T04:25:39.737Z,14.60
2018-04-14T04:28:08.384Z,14.50
2018-04-14T04:30:37.755Z,14.50
2018-04-14T04:33:06.369Z,14.50
2018-04-14T04:35:35.729Z,14.50
2018-04-14T04:38:04.342Z,14.50
2018-04-14T04:40:33.704Z,14.50
2018-04-14T04:43:02.325Z,14.50
2018-04-14T04:45:31.696Z,14.60
2018-04-14T04:48:00.308Z,14.50
2018-04-14T04:50:29.689Z,14.50
2018-04-14T04:52:58.293Z,14.50
2018-04-14T04:55:27.652Z,14.50
2018-04-14T04:57:56.268Z,14.50
2018-04-14T05:00:25.644Z,14.60
2018-04-14T05:02:54.236Z,14.50
2018-04-14T05:05:22.828Z,14.50
2018-04-14T05:07:52.229Z,14.50
2018-04-14T05:10:22.341Z,14.50
2018-04-14T05:12:50.947Z,14.50
2018-04-14T05:15:20.316Z,14.30
2018-04-14T05:17:48.921Z,14.30
2018-04-14T05:20:18.296Z,14.20
2018-04-14T05:22:46.893Z,14.20
2018-04-14T05:25:15.509Z,14.30
2018-04-14T05:27:44.120Z,14.30
2018-04-14T05:30:12.743Z,14.30
2018-04-14T05:32:41.358Z,14.10
2018-04-14T05:35:10.741Z,14.20
2018-04-14T05:37:39.340Z,14.10
2018-04-14T05:40:07.953Z,14.20
2018-04-14T05:42:36.574Z,14.20
2018-04-14T05:45:05.179Z,14.20
2018-04-14T05:47:34.536Z,14.30
2018-04-14T05:50:03.145Z,14.30
2018-04-14T05:52:31.749Z,14.40
2018-04-14T05:55:00.382Z,14.40
2018-04-14T05:57:28.993Z,14.30
2018-04-14T05:59:57.664Z,14.20
2018-04-14T06:02:26.245Z,14.30
2018-04-14T06:04:54.854Z,14.40
2018-04-14T06:07:23.461Z,14.40
2018-04-14T06:09:52.849Z,14.30
2018-04-14T06:12:21.501Z,14.30
2018-04-14T06:14:50.105Z,14.10
2018-04-14T06:17:18.716Z,14.10
2018-04-14T06:19:48.117Z,14.10
2018-04-14T06:22:16.734Z,14.10
2018-04-14T06:24:46.081Z,14.10
2018-04-14T06:27:14.697Z,14.10
2018-04-14T06:29:44.090Z,14.30
2018-04-14T06:32:13.501Z,14.30
2018-04-14T06:34:42.102Z,14.30
2018-04-14T06:37:10.707Z,14.40
2018-04-14T06:39:39.311Z,14.30
2018-04-14T06:42:07.997Z,14.20
2018-04-14T06:44:36.618Z,14.30
2018-04-14T06:47:05.984Z,13.90
2018-04-14T06:49:34.583Z,13.90
2018-04-14T06:52:03.192Z,13.80
2018-04-14T06:54:31.808Z,13.90
2018-04-14T06:57:00.477Z,14.00
2018-04-14T06:59:29.092Z,14.10
2018-04-14T07:01:57.701Z,14.30
2018-04-14T07:04:26.407Z,14.40
2018-04-14T07:06:55.754Z,14.60
2018-04-14T07:09:24.368Z,14.50
2018-04-14T07:11:53.122Z,14.30
2018-04-14T07:14:21.733Z,14.10
2018-04-14T07:16:51.092Z,14.20
2018-04-14T07:19:19.700Z,14.10
2018-04-14T07:21:48.312Z,14.30
2018-04-14T07:24:17.757Z,14.70
2018-04-14T07:26:46.374Z,14.60
2018-04-14T07:29:14.963Z,14.80
2018-04-14T07:31:44.573Z,15.10
2018-04-14T07:34:13.185Z,15.10
2018-04-14T07:36:41.809Z,15.20
2018-04-14T07:39:10.416Z,15.20
2018-04-14T07:41:39.024Z,15.10
2018-04-14T07:44:08.396Z,15.30
2018-04-14T07:46:37.013Z,15.20
2018-04-14T07:49:05.882Z,15.30
2018-04-14T07:51:35.721Z,14.90
2018-04-14T07:54:05.097Z,14.80
2018-04-14T07:56:33.702Z,14.70
2018-04-14T07:59:03.068Z,14.90
2018-04-14T08:01:31.697Z,14.90
2018-04-14T08:04:00.300Z,15.10
2018-04-14T08:06:29.713Z,15.20
2018-04-14T08:08:59.084Z,15.10
2018-04-14T08:11:27.705Z,15.10
2018-04-14T08:13:57.063Z,15.20
2018-04-14T08:16:25.706Z,15.20
2018-04-14T08:18:54.354Z,15.10
2018-04-14T08:21:22.945Z,15.10
2018-04-14T08:23:52.320Z,15.50
2018-04-14T08:26:20.928Z,15.40
2018-04-14T08:28:50.308Z,16.00
2018-04-14T08:31:18.914Z,16.00
2018-04-14T08:33:47.506Z,15.90
2018-04-14T08:36:16.865Z,16.30
2018-04-14T08:38:45.486Z,16.20
2018-04-14T08:41:14.837Z,16.60
2018-04-14T08:43:43.478Z,16.50
2018-04-14T08:46:12.840Z,17.10
2018-04-14T08:48:46.860Z,17.10
2018-04-14T08:51:15.462Z,17.00
2018-04-14T08:53:44.075Z,16.90
2018-04-14T08:56:12.684Z,17.10
2018-04-14T08:58:42.141Z,17.40
2018-04-14T09:01:10.733Z,17.80
2018-04-14T09:03:39.350Z,18.00
2018-04-14T09:06:07.989Z,18.10
2018-04-14T09:08:36.569Z,18.10
2018-04-14T09:11:05.190Z,18.00
2018-04-14T09:13:34.578Z,17.60
2018-04-14T09:16:03.978Z,17.60
2018-04-14T09:18:34.185Z,17.80
2018-04-14T09:21:03.816Z,18.20
2018-04-14T09:23:32.681Z,18.10
2018-04-14T09:26:01.550Z,18.70
2018-04-14T09:28:30.376Z,19.30
2018-04-14T09:30:59.240Z,19.90
2018-04-14T09:33:28.311Z,20.40
2018-04-14T09:35:57.165Z,20.40
2018-04-14T09:38:26.018Z,20.20
2018-04-14T09:40:55.001Z,20.10
2018-04-14T09:43:24.627Z,20.10
2018-04-14T09:45:54.251Z,20.50
2018-04-14T09:48:23.113Z,20.40
2018-04-14T09:50:52.732Z,19.60
2018-04-14T09:53:21.600Z,19.50
2018-04-14T09:55:51.228Z,20.40
2018-04-14T09:58:20.077Z,20.40
2018-04-14T10:00:54.585Z,21.60
2018-04-14T10:03:23.413Z,22.00
2018-04-14T10:05:53.777Z,22.80
2018-04-14T10:08:22.868Z,22.80
2018-04-14T10:10:52.475Z,22.30
2018-04-14T10:13:21.336Z,22.20
2018-04-14T10:15:50.957Z,23.60
2018-04-14T10:18:20.573Z,24.10
2018-04-14T10:20:49.448Z,24.10
2018-04-14T10:23:19.071Z,23.70
2018-04-14T10:25:48.673Z,23.00
2018-04-14T10:28:19.461Z,22.80
2018-04-14T10:30:48.310Z,22.70
2018-04-14T10:33:17.200Z,21.90
2018-04-14T10:35:46.793Z,21.20
2018-04-14T10:38:16.405Z,20.60
2018-04-14T10:40:46.033Z,20.30
2018-04-14T10:43:14.901Z,20.20
2018-04-14T10:45:44.503Z,21.20
2018-04-14T10:48:14.146Z,21.00
2018-04-14T10:50:42.991Z,21.00
2018-04-14T10:53:13.456Z,21.90
2018-04-14T10:55:42.359Z,21.80
2018-04-14T10:58:12.136Z,24.00
2018-04-14T11:00:41.767Z,24.40
2018-04-14T11:03:10.732Z,24.30
2018-04-14T11:05:39.726Z,24.40
2018-04-14T11:08:08.656Z,24.80
2018-04-14T11:10:37.488Z,23.50
2018-04-14T11:13:06.356Z,22.50
2018-04-14T11:15:35.197Z,21.90
2018-04-14T11:18:04.039Z,22.70
2018-04-14T11:20:32.916Z,23.50
2018-04-14T11:23:02.534Z,24.30
2018-04-14T11:25:32.142Z,23.70
2018-04-14T11:28:01.059Z,23.60
2018-04-14T11:30:29.896Z,24.30
2018-04-14T11:32:58.752Z,24.90
2018-04-14T11:35:27.602Z,25.20
2018-04-14T11:37:57.233Z,24.00
2018-04-14T11:40:26.103Z,23.90
2018-04-14T11:42:55.737Z,22.80
2018-04-14T11:45:24.608Z,22.80
2018-04-14T11:47:53.473Z,22.30
2018-04-14T11:50:23.090Z,23.80
2018-04-14T11:52:52.713Z,24.70
2018-04-14T11:55:22.282Z,24.60
2018-04-14T11:57:51.135Z,26.00
2018-04-14T12:00:20.068Z,26.20
2018-04-14T12:02:49.703Z,26.40
2018-04-14T12:05:18.536Z,26.30
2018-04-14T12:07:48.168Z,26.30
2018-04-14T12:10:17.020Z,26.20
2018-04-14T12:12:45.874Z,26.10
2018-04-14T12:15:14.714Z,26.90
2018-04-14T12:17:44.341Z,25.50
2018-04-14T12:20:13.224Z,25.40
2018-04-14T12:22:43.605Z,23.30
2018-04-14T12:25:12.434Z,23.20
2018-04-14T12:27:42.072Z,21.80
2018-04-14T12:30:10.953Z,21.70
2018-04-14T12:32:39.781Z,21.60
2018-04-14T12:35:08.633Z,21.60
2018-04-14T12:37:37.499Z,21.60
2018-04-14T12:40:07.119Z,21.50
2018-04-14T12:42:35.964Z,21.40
2018-04-14T12:45:06.048Z,21.60
2018-04-14T12:47:34.882Z,21.60
2018-04-14T12:50:03.740Z,21.50
2018-04-14T12:52:32.585Z,21.40
2018-04-14T12:55:02.219Z,21.70
2018-04-14T12:57:32.034Z,21.60
2018-04-14T13:00:00.905Z,21.30
2018-04-14T13:02:29.886Z,21.20
2018-04-14T13:04:59.569Z,21.10
2018-04-14T13:07:28.395Z,21.00
2018-04-14T13:09:58.009Z,21.20
2018-04-14T13:12:28.722Z,21.20
2018-04-14T13:14:58.344Z,21.30
2018-04-14T13:17:27.983Z,21.40
2018-04-14T13:19:56.813Z,21.40
2018-04-14T13:22:25.733Z,21.50
2018-04-14T13:24:54.828Z,21.50
2018-04-14T13:27:24.441Z,21.00
2018-04-14T13:29:53.300Z,20.90
2018-04-14T13:32:22.177Z,21.00
2018-04-14T13:34:51.012Z,21.00
2018-04-14T13:37:19.903Z,21.00
2018-04-14T13:39:49.502Z,21.00
2018-04-14T13:42:19.129Z,21.10
2018-04-14T13:44:47.988Z,21.10
2018-04-14T13:47:17.679Z,21.30
2018-04-14T13:49:46.486Z,21.30
2018-04-14T13:52:16.120Z,21.30
2018-04-14T13:54:44.985Z,21.30
2018-04-14T13:57:14.598Z,20.90
2018-04-14T13:59:43.463Z,20.90
2018-04-14T14:02:13.445Z,20.70
2018-04-14T14:04:43.347Z,20.70
2018-04-14T14:07:13.014Z,20.80
2018-04-14T14:09:42.811Z,20.90
2018-04-14T14:12:12.398Z,21.00
2018-04-14T14:14:42.043Z,20.90
2018-04-14T14:17:10.898Z,20.80
2018-04-14T14:19:40.547Z,21.20
2018-04-14T14:22:09.447Z,21.10
2018-04-14T14:24:38.342Z,21.10
2018-04-14T14:27:07.166Z,21.20
2018-04-14T14:29:36.059Z,21.30
2018-04-14T14:32:04.900Z,21.30
2018-04-14T14:34:33.804Z,21.20
2018-04-14T14:37:02.702Z,21.30
2018-04-14T14:39:31.573Z,21.40
2018-04-14T14:42:00.430Z,21.50
2018-04-14T14:44:30.084Z,21.70
2018-04-14T14:46:58.952Z,21.70
2018-04-14T14:49:27.792Z,21.70
2018-04-14T14:51:57.422Z,21.30
2018-04-14T14:54:27.041Z,21.20
2018-04-14T14:56:55.894Z,21.10
2018-04-14T14:59:24.736Z,20.90
2018-04-14T15:01:53.593Z,21.00
2018-04-14T15:04:23.214Z,21.00
2018-04-14T15:06:52.082Z,21.00
2018-04-14T15:09:21.843Z,21.10
2018-04-14T15:11:50.806Z,21.00
2018-04-14T15:14:19.732Z,21.20
2018-04-14T15:16:48.655Z,21.20
2018-04-14T15:19:17.600Z,21.20
2018-04-14T15:21:47.013Z,21.00
2018-04-14T15:24:15.903Z,21.00
2018-04-14T15:26:45.480Z,21.00
2018-04-14T15:29:15.179Z,21.00
2018-04-14T15:31:44.102Z,20.90
2018-04-14T15:34:13.870Z,20.90
2018-04-14T15:36:43.047Z,20.90
2018-04-14T15:39:11.936Z,20.90
2018-04-14T15:41:40.860Z,20.90
2018-04-14T15:44:09.725Z,20.90
2018-04-14T15:46:38.611Z,21.00
2018-04-14T15:49:08.433Z,21.00
2018-04-14T15:51:37.796Z,21.00
2018-04-14T15:54:08.506Z,21.00
2018-04-14T15:56:37.431Z,21.00
2018-04-14T15:59:07.160Z,21.00
2018-04-14T16:01:36.070Z,20.90
2018-04-14T16:04:09.788Z,20.80
2018-04-14T16:06:33.987Z,20.80
2018-04-14T16:09:02.894Z,20.80
2018-04-14T16:11:32.682Z,20.90
2018-04-14T16:14:01.555Z,20.90
2018-04-14T16:16:30.441Z,20.90
2018-04-14T16:18:59.335Z,21.00
2018-04-14T16:21:28.208Z,21.00
2018-04-14T16:23:57.139Z,21.00
2018-04-14T16:26:26.025Z,20.90
2018-04-14T16:28:55.682Z,20.90
2018-04-14T16:31:24.608Z,20.90
2018-04-14T16:33:54.278Z,20.80
2018-04-14T16:36:23.159Z,20.80
2018-04-14T16:38:52.108Z,20.70
2018-04-14T16:41:20.990Z,20.70
2018-04-14T16:43:49.877Z,20.60
2018-04-14T16:46:19.766Z,20.50
2018-04-14T16:48:48.643Z,20.40
2018-04-14T16:51:17.623Z,20.40
2018-04-14T16:53:46.528Z,20.30
2018-04-14T16:56:15.443Z,20.20
2018-04-14T16:58:44.379Z,20.20
2018-04-14T17:01:13.306Z,20.20
2018-04-14T17:03:42.894Z,20.10
2018-04-14T17:06:11.876Z,20.10
2018-04-14T17:08:40.765Z,20.00
2018-04-14T17:11:09.662Z,20.00
2018-04-14T17:13:38.615Z,19.90
2018-04-14T17:16:07.553Z,19.80
2018-04-14T17:18:36.458Z,19.80
2018-04-14T17:21:05.462Z,19.80
2018-04-14T17:23:34.377Z,19.70
2018-04-14T17:26:03.322Z,19.70
2018-04-14T17:28:32.218Z,19.70
2018-04-14T17:31:01.573Z,19.60
2018-04-14T17:33:30.450Z,19.60
2018-04-14T17:35:59.344Z,19.50
2018-04-14T17:38:28.255Z,19.50
2018-04-14T17:40:57.212Z,19.40
2018-04-14T17:43:26.209Z,19.40
2018-04-14T17:45:55.080Z,19.40
2018-04-14T17:48:24.124Z,19.40
2018-04-14T17:50:53.097Z,19.30
2018-04-14T17:53:21.962Z,19.20
2018-04-14T17:55:50.827Z,19.10
2018-04-14T17:58:19.735Z,19.10
2018-04-14T18:00:48.706Z,19.10
2018-04-14T18:03:18.364Z,19.00
2018-04-14T18:05:47.334Z,18.90
2018-04-14T18:08:16.259Z,19.00
2018-04-14T18:10:45.156Z,18.90
2018-04-14T18:13:14.055Z,18.90
2018-04-14T18:15:42.984Z,18.80
2018-04-14T18:18:11.962Z,18.80
2018-04-14T18:20:41.608Z,18.80
2018-04-14T18:23:10.770Z,18.70
2018-04-14T18:25:40.419Z,18.70
2018-04-14T18:28:09.315Z,18.70
2018-04-14T18:30:38.208Z,18.70
2018-04-14T18:33:07.265Z,18.70
2018-04-14T18:35:36.163Z,18.70
2018-04-14T18:38:09.088Z,18.60
2018-04-14T18:40:37.983Z,18.60
2018-04-14T18:43:06.848Z,18.50
2018-04-14T18:45:35.767Z,18.50
2018-04-14T18:48:04.672Z,18.50
2018-04-14T18:50:33.580Z,18.40
2018-04-14T18:53:02.449Z,18.40
2018-04-14T18:55:31.380Z,18.40
2018-04-14T18:58:00.284Z,18.30
2018-04-14T19:00:29.982Z,18.20
2018-04-14T19:02:58.930Z,18.20
2018-04-14T19:05:27.841Z,18.20
2018-04-14T19:07:56.763Z,18.20
2018-04-14T19:10:26.497Z,18.20
2018-04-14T19:12:55.393Z,18.10
2018-04-14T19:15:24.302Z,18.20
2018-04-14T19:17:53.360Z,18.10
2018-04-14T19:20:24.270Z,18.10
2018-04-14T19:22:53.258Z,18.10
2018-04-14T19:25:23.600Z,18.00
2018-04-14T19:27:52.523Z,18.00
2018-04-14T19:30:21.411Z,17.90
2018-04-14T19:32:50.346Z,17.90
2018-04-14T19:35:19.253Z,17.90
2018-04-14T19:37:48.190Z,17.80
2018-04-14T19:40:17.081Z,17.80
2018-04-14T19:42:46.015Z,17.70
2018-04-14T19:45:14.923Z,17.70
2018-04-14T19:47:44.616Z,17.60
2018-04-14T19:50:13.517Z,17.60
2018-04-14T19:52:43.000Z,17.50
2018-04-14T19:55:12.692Z,17.40
2018-04-14T19:57:42.389Z,17.30
2018-04-14T20:00:11.280Z,17.30
2018-04-14T20:02:40.187Z,17.30
2018-04-14T20:05:09.125Z,17.30
2018-04-14T20:07:38.113Z,17.30
2018-04-14T20:10:07.005Z,17.30
2018-04-14T20:12:35.897Z,17.40
2018-04-14T20:15:04.923Z,17.40
2018-04-14T20:17:33.821Z,17.40
2018-04-14T20:20:02.770Z,17.30
2018-04-14T20:22:31.648Z,17.20
2018-04-14T20:25:00.544Z,17.20
2018-04-14T20:27:29.428Z,17.20
2018-04-14T20:29:58.319Z,17.20
2018-04-14T20:32:27.240Z,17.00
2018-04-14T20:34:56.163Z,17.10
2018-04-14T20:37:26.101Z,17.00
2018-04-14T20:39:55.745Z,17.10
2018-04-14T20:42:24.643Z,17.00
2018-04-14T20:44:54.339Z,17.00
2018-04-14T20:47:23.203Z,17.00
2018-04-14T20:49:52.097Z,17.00
2018-04-14T20:52:21.222Z,17.00
2018-04-14T20:54:50.122Z,17.00
2018-04-14T20:57:19.005Z,17.00
2018-04-14T20:59:47.911Z,17.00
2018-04-14T21:02:16.842Z,17.00
2018-04-14T21:04:46.518Z,17.10
2018-04-14T21:07:15.435Z,17.00
2018-04-14T21:09:44.381Z,17.00
2018-04-14T21:12:13.314Z,16.90
2018-04-14T21:14:42.207Z,16.90
2018-04-14T21:17:11.913Z,16.90
2018-04-14T21:19:40.819Z,16.90
2018-04-14T21:22:09.716Z,17.00
2018-04-14T21:24:38.691Z,17.00
2018-04-14T21:27:08.367Z,16.90
2018-04-14T21:29:37.285Z,16.90
2018-04-14T21:32:06.200Z,16.90
2018-04-14T21:34:35.098Z,16.80
2018-04-14T21:37:03.959Z,16.80
2018-04-14T21:39:33.600Z,16.90
2018-04-14T21:42:02.493Z,16.80
2018-04-14T21:44:31.374Z,16.80
2018-04-14T21:47:00.243Z,16.80
2018-04-14T21:49:29.149Z,16.70
2018-04-14T21:51:58.069Z,16.70
2018-04-14T21:54:27.890Z,16.70
2018-04-14T21:56:56.799Z,16.70
2018-04-14T21:59:25.862Z,16.70
2018-04-14T22:01:54.729Z,16.70
2018-04-14T22:04:24.450Z,16.70
2018-04-14T22:06:53.311Z,16.70
2018-04-14T22:09:22.211Z,16.60
2018-04-14T22:11:51.090Z,16.60
2018-04-14T22:14:32.642Z,16.50
2018-04-14T22:17:01.514Z,16.40
2018-04-14T22:19:30.436Z,16.50
2018-04-14T22:22:00.102Z,16.50
2018-04-14T22:24:29.018Z,16.50
2018-04-14T22:26:58.745Z,16.50
2018-04-14T22:29:27.641Z,16.50
2018-04-14T22:31:56.523Z,16.50
2018-04-14T22:34:25.530Z,16.60
2018-04-14T22:36:54.420Z,16.60
2018-04-14T22:39:30.407Z,16.60
2018-04-14T22:41:59.422Z,16.50
2018-04-14T22:44:28.298Z,16.50
2018-04-14T22:46:57.217Z,16.50
2018-04-14T22:49:26.054Z,16.50
2018-04-14T22:51:54.994Z,16.40
2018-04-14T22:54:23.836Z,16.40
2018-04-14T22:56:54.245Z,16.40
2018-04-14T22:59:23.138Z,16.50
2018-04-14T23:01:52.068Z,16.50
2018-04-14T23:04:20.987Z,16.50
2018-04-14T23:06:49.901Z,16.50
2018-04-14T23:09:18.836Z,16.40
2018-04-14T23:11:47.697Z,16.30
2018-04-14T23:14:17.119Z,16.20
2018-04-14T23:16:45.981Z,16.20
2018-04-14T23:19:14.899Z,16.20
2018-04-14T23:21:43.865Z,16.20
2018-04-14T23:24:12.845Z,16.30
2018-04-14T23:26:41.730Z,16.30
2018-04-14T23:29:10.666Z,16.30
2018-04-14T23:31:39.531Z,16.30
2018-04-14T23:34:08.521Z,16.20
2018-04-14T23:36:38.414Z,16.20
2018-04-14T23:39:07.290Z,16.10
2018-04-14T23:41:36.264Z,16.20
2018-04-14T23:44:05.179Z,16.10
2018-04-14T23:46:34.046Z,16.10
2018-04-14T23:49:02.938Z,16.00
2018-04-14T23:51:31.810Z,16.00
2018-04-14T23:54:00.694Z,16.00
2018-04-14T23:56:30.308Z,15.80
2018-04-14T23:58:59.222Z,15.80
